Time;durP1;ratioP1;P1;durP2;ratioP2;P2;SDS_P1;SDS_P2;PMS_P1;PMS_P2;Temp;Humidity;BMP_temperature;BMP_pressure;BME280_temperature;BME280_humidity;BME280_pressure;Samples;Min_cycle;Max_cycle;Signal;HPM_P1;HPM_P2
2022/06/21 00:01:02;;;;;;;7.08;2.67;;;;;;;11.63;89.99;100149.18;1743149;80;20980;-76
2022/06/21 00:03:30;;;;;;;4.12;2.52;;;;;;;11.58;90.06;100148.09;1741418;80;21007;-76
2022/06/21 00:05:58;;;;;;;3.72;2.85;;;;;;;11.59;89.99;100146.32;1774481;80;20991;-76
2022/06/21 00:08:33;;;;;;;4.05;2.52;;;;;;;11.56;89.92;100148.62;1741288;80;21000;-76
2022/06/21 00:11:01;;;;;;;3.33;2.22;;;;;;;11.56;89.93;100150.39;1741363;80;21114;-76
2022/06/21 00:13:32;;;;;;;5.42;2.42;;;;;;;11.51;89.75;100153.69;1741398;80;21074;-76
2022/06/21 00:16:04;;;;;;;3.25;2.33;;;;;;;11.46;89.72;100168.78;1756474;80;21006;-76
2022/06/21 00:18:36;;;;;;;4.35;2.58;;;;;;;11.43;89.81;100167.14;1781159;80;21068;-76
2022/06/21 00:21:07;;;;;;;3.27;2.50;;;;;;;11.43;89.92;100185.52;1749870;80;21078;-77
2022/06/21 00:23:34;;;;;;;4.15;2.52;;;;;;;11.42;89.91;100202.63;1741758;80;21118;-77
2022/06/21 00:26:01;;;;;;;4.22;2.70;;;;;;;11.34;89.61;100219.57;1769191;80;20966;-77
2022/06/21 00:28:28;;;;;;;7.15;2.70;;;;;;;11.31;90.29;100207.90;1741781;80;21516;-76
2022/06/21 00:30:56;;;;;;;3.98;2.90;;;;;;;11.29;90.13;100204.48;1741527;80;21046;-75
2022/06/21 00:33:24;;;;;;;4.60;3.00;;;;;;;11.21;89.69;100184.75;1769694;80;21493;-76
2022/06/21 00:35:56;;;;;;;4.58;3.02;;;;;;;11.18;90.45;100183.10;1741529;80;21135;-75
2022/06/21 00:38:29;;;;;;;4.35;2.72;;;;;;;11.16;90.98;100166.56;1783670;80;21033;-75
2022/06/21 00:40:59;;;;;;;4.72;2.50;;;;;;;11.19;90.84;100164.27;1757548;80;21050;-75
2022/06/21 00:43:34;;;;;;;3.58;2.50;;;;;;;11.11;90.79;100162.86;1741519;80;21535;-75
2022/06/21 00:46:01;;;;;;;4.08;2.60;;;;;;;11.06;90.68;100153.48;1763103;80;21621;-75
2022/06/21 00:48:44;;;;;;;4.45;2.42;;;;;;;11.05;90.93;100151.75;1746640;80;21899;-75
2022/06/21 00:51:40;;;;;;;2.75;2.08;;;;;;;11.04;90.98;100151.38;1753567;80;21101;-75
2022/06/21 00:54:40;;;;;;;4.30;2.22;;;;;;;11.01;91.23;100153.66;1772010;80;21483;-75
2022/06/21 00:57:15;;;;;;;3.95;2.30;;;;;;;11.00;91.60;100150.66;1729380;80;20996;-76
2022/06/21 00:59:44;;;;;;;6.55;2.10;;;;;;;11.04;91.87;100148.75;1729981;80;21619;-75
2022/06/21 01:02:23;;;;;;;2.92;2.08;;;;;;;11.04;91.75;100150.91;1729861;80;21132;-75
2022/06/21 01:04:56;;;;;;;6.20;2.20;;;;;;;11.01;91.96;100151.05;1729730;80;21082;-75
2022/06/21 01:07:23;;;;;;;2.15;1.90;;;;;;;10.93;91.19;100150.52;1729911;80;21039;-75
2022/06/21 01:10:02;;;;;;;1.95;1.65;;;;;;;10.83;90.80;100146.56;1742167;80;21045;-75
2022/06/21 01:12:34;;;;;;;1.50;1.40;;;;;;;10.78;90.98;100155.95;1761540;80;21025;-76
2022/06/21 01:15:09;;;;;;;2.37;1.47;;;;;;;10.73;90.79;100150.51;1743293;80;21119;-75
2022/06/21 01:17:38;;;;;;;2.85;1.62;;;;;;;10.70;91.16;100152.80;1737613;80;21138;-75
2022/06/21 01:20:11;;;;;;;2.43;1.70;;;;;;;10.65;91.08;100146.42;1730116;80;21051;-75
2022/06/21 01:23:18;;;;;;;3.37;1.50;;;;;;;10.63;90.78;100152.64;1731240;80;21031;-75
2022/06/21 01:26:06;;;;;;;3.90;1.70;;;;;;;10.59;90.91;100149.77;1771354;80;21451;-75
2022/06/21 01:28:33;;;;;;;1.95;1.70;;;;;;;10.54;90.76;100155.66;1758594;80;21113;-75
2022/06/21 01:31:01;;;;;;;4.63;2.30;;;;;;;10.49;90.99;100154.05;1729962;80;21502;-75
2022/06/21 01:33:33;;;;;;;2.80;2.60;;;;;;;10.48;91.29;100156.75;1753630;80;21063;-74
2022/06/21 01:36:10;;;;;;;4.62;2.90;;;;;;;10.48;91.54;100155.45;1759164;80;22384;-75
2022/06/21 01:38:48;;;;;;;3.60;2.93;;;;;;;10.52;91.59;100152.23;1753271;80;21501;-75
2022/06/21 01:41:20;;;;;;;4.08;3.37;;;;;;;10.52;91.96;100152.23;1740824;80;21193;-74
2022/06/21 01:43:53;;;;;;;8.05;3.83;;;;;;;10.51;91.88;100153.16;1745693;80;21065;-75
2022/06/21 01:46:25;;;;;;;5.30;4.80;;;;;;;10.53;92.18;100157.86;1734860;80;20992;-74
2022/06/21 01:48:56;;;;;;;7.97;5.00;;;;;;;10.59;92.84;100161.56;1730010;80;21035;-75
2022/06/21 01:51:34;;;;;;;6.10;5.50;;;;;;;10.61;92.66;100162.33;1729966;80;21496;-74
2022/06/21 01:54:04;;;;;;;7.05;5.70;;;;;;;10.65;92.63;100163.92;1764922;80;21915;-74
2022/06/21 01:56:36;;;;;;;8.00;5.65;;;;;;;10.70;93.00;100161.98;1727688;81;20999;-74
2022/06/21 01:59:12;;;;;;;8.58;6.20;;;;;;;10.73;92.66;100162.30;1741727;81;21018;-74
2022/06/21 02:02:08;;;;;;;7.83;6.57;;;;;;;10.75;92.68;100166.54;1727554;81;21026;-75
2022/06/21 02:04:42;;;;;;;7.47;5.70;;;;;;;10.78;92.81;100166.44;1733768;82;21518;-75
2022/06/21 02:07:14;;;;;;;8.20;5.67;;;;;;;10.82;92.73;100165.84;1733274;82;21133;-75
2022/06/21 02:09:46;;;;;;;8.93;5.15;;;;;;;10.82;92.60;100157.52;1728663;81;21062;-75
2022/06/21 02:12:15;;;;;;;7.33;5.08;;;;;;;10.81;92.33;100163.69;1740372;81;21063;-75
2022/06/21 02:14:55;;;;;;;6.37;4.90;;;;;;;10.80;92.55;100167.67;1742344;81;20934;-75
2022/06/21 02:17:27;;;;;;;6.17;4.72;;;;;;;10.80;92.56;100162.42;1771164;81;21448;-75
2022/06/21 02:20:26;;;;;;;4.93;4.30;;;;;;;10.75;92.03;100161.30;1766715;81;22140;-75
2022/06/21 02:22:54;;;;;;;6.87;3.92;;;;;;;10.76;92.70;100154.31;1770836;80;21457;-75
2022/06/21 02:25:25;;;;;;;5.55;4.20;;;;;;;10.72;92.61;100167.98;1770976;80;21492;-75
2022/06/21 02:28:06;;;;;;;4.00;3.50;;;;;;;10.74;92.53;100171.86;1771153;81;21094;-75
2022/06/21 02:30:36;;;;;;;4.50;3.60;;;;;;;10.70;92.38;100169.37;1770964;80;21035;-75
2022/06/21 02:33:07;;;;;;;4.77;4.20;;;;;;;10.71;92.55;100164.98;1771073;81;21093;-76
2022/06/21 02:35:51;;;;;;;6.03;3.75;;;;;;;10.68;92.28;100163.80;1770139;81;21022;-75
2022/06/21 02:38:39;;;;;;;5.30;3.27;;;;;;;10.62;92.03;100164.91;1755001;80;21089;-76
2022/06/21 02:41:14;;;;;;;6.20;4.12;;;;;;;10.58;92.12;100168.55;1769482;80;21280;-75
2022/06/21 02:43:46;;;;;;;4.47;3.57;;;;;;;10.58;92.40;100161.15;1770859;80;21489;-75
2022/06/21 02:46:27;;;;;;;5.97;3.70;;;;;;;10.60;92.58;100163.26;1756216;80;21132;-75
2022/06/21 02:49:12;;;;;;;5.97;3.40;;;;;;;10.54;92.34;100159.13;1755247;81;20999;-74
2022/06/21 02:51:48;;;;;;;6.43;3.97;;;;;;;10.53;92.32;100168.34;1770199;80;21489;-75
2022/06/21 02:54:29;;;;;;;5.37;3.87;;;;;;;10.53;92.44;100167.03;1757617;81;20984;-76
2022/06/21 02:57:08;;;;;;;6.90;3.53;;;;;;;10.51;92.26;100163.64;1742695;80;21068;-74
2022/06/21 02:59:38;;;;;;;5.17;3.58;;;;;;;10.52;92.84;100170.58;1759618;81;21064;-74
2022/06/21 03:02:10;;;;;;;;;;;;;;;10.54;92.78;100170.06;1770475;80;20995;-75
2022/06/21 03:04:51;;;;;;;4.83;3.40;;;;;;;10.54;92.72;100167.45;1758919;81;20164;-75
2022/06/21 03:07:35;;;;;;;7.03;3.35;;;;;;;10.54;93.02;100166.98;1722749;81;21046;-75
2022/06/21 03:10:04;;;;;;;6.23;3.40;;;;;;;10.55;92.91;100166.52;1756947;80;21080;-75
2022/06/21 03:12:32;;;;;;;5.80;3.37;;;;;;;10.54;92.51;100164.83;1752994;81;21351;-74
2022/06/21 03:15:05;;;;;;;4.63;3.07;;;;;;;10.51;92.38;100165.80;1770931;80;20995;-74
2022/06/21 03:17:44;;;;;;;5.13;3.20;;;;;;;10.47;92.36;100166.39;1770887;80;21038;-74
2022/06/21 03:20:16;;;;;;;4.67;3.15;;;;;;;10.51;92.98;100162.33;1770931;80;20999;-74
2022/06/21 03:22:44;;;;;;;4.10;3.13;;;;;;;10.53;92.58;100165.29;1754856;80;21038;-75
2022/06/21 03:25:45;;;;;;;5.30;3.23;;;;;;;10.55;92.93;100174.38;1759702;81;21942;-76
2022/06/21 03:28:30;;;;;;;6.37;3.42;;;;;;;10.54;92.47;100166.98;1755664;81;21006;-75
2022/06/21 03:31:12;;;;;;;4.28;3.05;;;;;;;10.54;92.63;100177.47;1769477;80;21003;-74
2022/06/21 03:33:44;;;;;;;5.67;3.17;;;;;;;10.54;92.69;100185.79;1748147;81;21029;-75
2022/06/21 03:36:16;;;;;;;5.97;3.20;;;;;;;10.53;92.62;100192.80;1766933;81;20983;-75
2022/06/21 03:38:48;;;;;;;3.45;2.75;;;;;;;10.55;92.90;100193.57;1771239;80;21127;-75
2022/06/21 03:44:28;;;;;;;5.37;3.15;;;;;;;10.56;92.55;100204.47;1635316;87;21074;-75
2022/06/21 03:47:07;;;;;;;5.37;3.40;;;;;;;10.60;93.16;100215.21;1642510;85;21031;-75
2022/06/21 03:49:54;;;;;;;5.90;3.60;;;;;;;10.60;92.57;100212.59;1630279;86;21567;-74
2022/06/21 03:53:00;;;;;;;4.13;2.90;;;;;;;10.59;92.61;100217.45;1668019;86;21207;-74
2022/06/21 03:55:09;;;;;;;5.72;3.58;;;;;;;10.57;92.59;100215.34;1667519;85;28230;-75
2022/06/21 03:57:38;;;;;;;4.40;3.60;;;;;;;10.59;92.82;100215.30;1676499;85;21073;-74
2022/06/21 04:00:11;;;;;;;6.60;3.70;;;;;;;10.63;93.21;100222.95;1677251;85;21041;-76
2022/06/21 04:02:47;;;;;;;5.15;3.52;;;;;;;10.63;92.88;100216.40;1664761;85;21095;-75
2022/06/21 04:05:25;;;;;;;5.80;3.80;;;;;;;10.66;93.14;100216.27;1657043;85;21747;-76
2022/06/21 04:08:06;;;;;;;4.33;3.03;;;;;;;10.70;93.14;100203.45;1676788;85;21065;-76
2022/06/21 04:10:50;;;;;;;4.45;3.72;;;;;;;10.69;92.80;100204.34;1675613;85;21140;-76
2022/06/21 04:13:28;;;;;;;6.30;3.50;;;;;;;10.69;92.83;100209.59;1676963;85;21593;-76
2022/06/21 04:16:04;;;;;;;5.85;3.45;;;;;;;10.70;92.66;100210.00;1745927;80;21026;-76
2022/06/21 04:18:51;;;;;;;4.28;3.25;;;;;;;10.71;92.77;100207.77;1780496;80;21079;-76
2022/06/21 04:21:43;;;;;;;6.70;3.80;;;;;;;10.78;93.14;100207.51;1781420;80;21005;-77
2022/06/21 04:24:25;;;;;;;4.50;3.37;;;;;;;10.80;92.92;100215.70;1777775;80;21051;-77
2022/06/21 04:27:16;;;;;;;5.77;3.40;;;;;;;10.83;92.88;100207.71;1751385;80;21546;-77
2022/06/21 04:29:54;;;;;;;6.40;3.60;;;;;;;10.83;92.59;100209.03;1676553;84;21614;-76
2022/06/21 04:32:32;;;;;;;4.70;3.57;;;;;;;10.86;92.80;100203.69;1680180;84;21091;-76
2022/06/21 04:35:14;;;;;;;5.70;3.57;;;;;;;10.89;92.38;100220.59;1669582;83;22227;-79
2022/06/21 04:37:53;;;;;;;5.85;3.22;;;;;;;10.91;92.50;100227.92;1678233;84;21488;-78
2022/06/21 04:40:42;;;;;;;4.53;3.20;;;;;;;10.93;92.41;100215.61;1679816;85;21084;-82
2022/06/21 04:43:20;;;;;;;5.67;3.37;;;;;;;10.97;92.43;100216.79;1679545;85;21037;-77
2022/06/21 04:45:56;;;;;;;4.20;3.47;;;;;;;10.99;92.13;100208.41;1679745;84;21203;-75
2022/06/21 04:48:32;;;;;;;6.17;4.25;;;;;;;11.01;92.19;100207.42;1679659;85;21558;-79
2022/06/21 04:51:04;;;;;;;5.03;3.45;;;;;;;11.04;92.39;100215.16;1679911;84;21601;-75
2022/06/21 04:53:46;;;;;;;5.67;3.60;;;;;;;11.09;92.21;100227.63;1679872;85;21042;-74
2022/06/21 04:57:01;;;;;;;5.97;3.50;;;;;;;11.12;92.22;100226.66;1683861;84;21086;-75
2022/06/21 04:59:39;;;;;;;7.17;3.57;;;;;;;11.14;92.08;100210.37;1687748;83;21140;-76
2022/06/21 05:02:14;;;;;;;6.37;3.50;;;;;;;11.12;91.83;100197.33;1687518;84;21094;-76
2022/06/21 05:04:43;;;;;;;8.73;3.70;;;;;;;11.14;91.99;100209.94;1742031;81;20988;-76
2022/06/21 05:07:18;;;;;;;5.83;3.72;;;;;;;11.20;92.22;100214.06;1756070;80;21013;-86
2022/06/21 05:09:48;;;;;;;5.37;3.20;;;;;;;11.24;92.10;100212.16;1762189;81;20963;-82
2022/06/21 05:12:32;;;;;;;6.12;3.50;;;;;;;11.26;92.03;100213.80;1765061;80;21110;-79
2022/06/21 05:15:16;;;;;;;4.95;3.10;;;;;;;11.28;91.64;100215.91;1735402;81;20987;-77
2022/06/21 05:17:47;;;;;;;7.55;3.98;;;;;;;11.30;91.66;100214.52;1757313;80;21074;-79
2022/06/21 05:20:20;;;;;;;6.87;3.65;;;;;;;11.34;91.75;100200.36;1767118;81;21028;-74
2022/06/21 05:22:52;;;;;;;3.42;3.12;;;;;;;11.39;91.72;100212.36;1770266;81;21006;-75
2022/06/21 05:25:40;;;;;;;5.17;3.65;;;;;;;11.47;91.90;100213.78;1766067;80;22014;-77
2022/06/21 05:28:16;;;;;;;4.42;3.25;;;;;;;11.53;91.84;100209.59;1753157;81;21014;-75
2022/06/21 05:31:04;;;;;;;4.75;3.40;;;;;;;11.60;91.59;100211.86;1766756;81;21093;-75
2022/06/21 05:33:54;;;;;;;4.22;3.30;;;;;;;11.67;91.80;100221.64;1760849;80;20951;-75
2022/06/21 05:36:29;;;;;;;5.35;3.05;;;;;;;11.77;91.63;100216.82;1759600;80;21030;-75
2022/06/21 05:39:09;;;;;;;4.87;3.17;;;;;;;11.83;91.41;100219.16;1770733;80;21789;-75
2022/06/21 05:41:45;;;;;;;5.80;3.42;;;;;;;11.88;91.38;100211.97;1743072;80;21046;-74
2022/06/21 05:44:38;;;;;;;3.70;2.77;;;;;;;11.97;91.22;100220.77;1759436;81;21041;-75
2022/06/21 05:47:35;;;;;;;5.45;3.20;;;;;;;12.04;91.08;100227.89;1743958;81;21476;-75
2022/06/21 05:50:07;;;;;;;6.47;3.12;;;;;;;12.10;90.71;100235.48;1770650;80;21010;-75
2022/06/21 05:52:38;;;;;;;5.40;3.27;;;;;;;12.12;90.39;100239.37;1771238;80;21965;-79
2022/06/21 05:55:14;;;;;;;4.28;3.37;;;;;;;12.15;90.34;100247.11;1770734;80;21512;-80
2022/06/21 05:57:58;;;;;;;5.12;3.15;;;;;;;12.18;90.19;100254.84;1771029;80;21536;-77
2022/06/21 06:00:31;;;;;;;7.90;3.95;;;;;;;12.21;90.08;100242.41;1765518;81;21081;-75
2022/06/21 06:03:06;;;;;;;6.03;3.67;;;;;;;12.26;90.03;100254.03;1770831;80;20967;-77
2022/06/21 06:05:35;;;;;;;4.92;3.50;;;;;;;12.34;90.05;100258.94;1761949;81;22123;-76
2022/06/21 06:08:10;;;;;;;5.62;3.47;;;;;;;12.37;89.96;100250.91;1771214;81;20930;-75
2022/06/21 06:10:43;;;;;;;5.50;3.87;;;;;;;12.38;89.73;100259.17;1768174;81;21019;-78
2022/06/21 06:13:21;;;;;;;6.00;4.03;;;;;;;12.43;89.93;100257.19;1768177;81;21066;-81
2022/06/21 06:15:55;;;;;;;6.00;3.50;;;;;;;12.49;89.67;100268.72;1768855;81;21014;-77
2022/06/21 06:18:40;;;;;;;6.53;3.10;;;;;;;12.54;89.60;100271.98;1771150;80;21464;-76
2022/06/21 06:21:32;;;;;;;6.15;3.45;;;;;;;12.61;89.45;100268.59;1758936;81;20999;-77
2022/06/21 06:24:05;;;;;;;4.40;3.20;;;;;;;12.69;89.42;100275.22;1757197;80;21464;-77
2022/06/21 06:26:36;;;;;;;5.95;2.92;;;;;;;12.80;89.45;100266.78;1764642;80;21033;-86
2022/06/21 06:29:30;;;;;;;3.98;2.90;;;;;;;12.92;89.58;100262.73;1764913;81;21022;-79
2022/06/21 06:32:11;;;;;;;3.77;2.83;;;;;;;12.98;88.93;100265.52;1757788;80;21120;-79
2022/06/21 06:34:46;;;;;;;5.60;3.20;;;;;;;13.03;88.83;100260.42;1760426;80;21068;-79
2022/06/21 06:37:38;;;;;;;5.50;2.90;;;;;;;13.09;88.67;100260.11;1763958;81;21051;-79
2022/06/21 06:40:16;;;;;;;5.35;2.92;;;;;;;13.14;88.49;100280.48;1764719;80;21018;-78
2022/06/21 06:42:44;;;;;;;5.62;3.35;;;;;;;13.13;88.23;100274.80;1764574;80;21026;-77
2022/06/21 06:45:22;;;;;;;10.10;3.12;;;;;;;13.20;88.35;100279.79;1745837;81;21821;-77
2022/06/21 06:47:54;;;;;;;8.43;3.08;;;;;;;13.17;87.97;100285.59;1768841;80;21005;-78
2022/06/21 06:50:29;;;;;;;4.97;3.20;;;;;;;13.18;88.04;100286.43;1762786;81;21463;-75
2022/06/21 06:53:34;;;;;;;4.45;3.20;;;;;;;13.12;87.37;100292.00;1754017;81;21066;-76
2022/06/21 06:56:13;;;;;;;5.00;2.40;;;;;;;13.02;87.14;100292.91;1757960;80;21216;-77
2022/06/21 06:58:49;;;;;;;4.35;2.60;;;;;;;12.99;87.22;100286.95;1766397;80;21118;-78
2022/06/21 07:01:24;;;;;;;3.98;2.98;;;;;;;13.07;87.83;100290.91;1784094;80;20960;-76
2022/06/21 07:03:59;;;;;;;5.55;2.90;;;;;;;13.17;87.77;100292.16;1785239;80;20971;-77
2022/06/21 07:06:44;;;;;;;5.20;2.83;;;;;;;13.25;87.86;100288.31;1767206;80;21049;-76
2022/06/21 07:09:28;;;;;;;6.20;2.90;;;;;;;13.32;87.64;100294.98;1765646;80;21049;-78
2022/06/21 07:12:21;;;;;;;5.65;2.47;;;;;;;13.42;87.38;100288.34;1787138;80;21058;-75
2022/06/21 07:14:50;;;;;;;3.42;2.22;;;;;;;13.50;87.38;100291.44;1769216;80;20926;-76
2022/06/21 07:17:41;;;;;;;2.92;2.05;;;;;;;13.62;87.08;100295.22;1760546;78;21060;-76
2022/06/21 07:20:25;;;;;;;4.45;2.10;;;;;;;13.75;86.93;100299.41;1760857;78;21018;-75
2022/06/21 07:22:55;;;;;;;5.20;2.20;;;;;;;13.93;86.94;100309.44;1787186;80;21010;-76
2022/06/21 07:25:35;;;;;;;;;;;;;;;13.99;86.42;100311.27;1787187;78;21904;-77
2022/06/21 07:28:38;;;;;;;7.40;2.58;;;;;;;14.06;86.00;100316.62;1787002;78;20195;-75
2022/06/21 07:31:19;;;;;;;3.50;2.20;;;;;;;14.06;85.79;100321.89;1744741;80;21041;-76
2022/06/21 07:34:03;;;;;;;7.60;2.42;;;;;;;14.04;85.52;100317.16;1730906;81;21069;-76
2022/06/21 07:36:36;;;;;;;6.75;2.35;;;;;;;13.99;84.78;100311.27;1722213;82;21533;-76
2022/06/21 07:39:14;;;;;;;4.80;2.60;;;;;;;14.00;85.06;100310.36;1736717;81;21108;-75
2022/06/21 07:41:50;;;;;;;3.17;2.22;;;;;;;14.15;85.44;100313.95;1729688;81;21494;-75
2022/06/21 07:44:45;;;;;;;4.10;2.40;;;;;;;14.32;85.54;100327.55;1738262;82;20946;-75
2022/06/21 07:47:19;;;;;;;5.53;2.65;;;;;;;14.42;85.17;100324.81;1734641;81;21135;-77
2022/06/21 07:49:54;;;;;;;3.75;2.98;;;;;;;14.56;84.98;100323.25;1728047;81;21589;-83
2022/06/21 07:52:41;;;;;;;4.35;2.25;;;;;;;14.65;84.80;100326.21;1752894;81;21981;-76
2022/06/21 07:55:23;;;;;;;4.85;2.40;;;;;;;14.67;83.89;100325.67;1728268;81;21105;-72
2022/06/21 07:57:56;;;;;;;4.20;1.92;;;;;;;14.75;84.06;100325.25;1754236;80;21040;-77
2022/06/21 08:06:40;;;;;;;3.55;1.90;;;;;;;14.84;83.68;100319.92;1728276;81;21086;-75
2022/06/21 08:09:21;;;;;;;2.42;1.82;;;;;;;14.95;82.95;100330.25;1733715;81;21057;-74
2022/06/21 08:11:51;;;;;;;6.65;2.10;;;;;;;15.03;82.61;100339.55;1745201;81;21074;-75
2022/06/21 08:14:20;;;;;;;5.53;2.17;;;;;;;15.15;82.45;100328.27;1710038;83;21075;-76
2022/06/21 08:17:14;;;;;;;6.62;2.27;;;;;;;15.31;82.49;100340.13;1695037;83;21088;-74
2022/06/21 08:19:52;;;;;;;5.60;2.65;;;;;;;15.42;81.94;100325.84;1754423;81;21128;-72
2022/06/21 08:22:44;;;;;;;4.50;1.77;;;;;;;15.53;81.81;100335.78;1714629;81;20987;-74
2022/06/21 08:25:47;;;;;;;4.80;1.82;;;;;;;15.62;81.14;100340.52;1737145;81;20997;-75
2022/06/21 08:28:23;;;;;;;4.97;1.70;;;;;;;15.75;81.12;100339.36;1738440;81;21043;-74
2022/06/21 08:30:57;;;;;;;3.20;1.42;;;;;;;15.91;80.69;100341.94;1738866;81;21657;-75
2022/06/21 08:33:39;;;;;;;2.80;1.72;;;;;;;15.95;80.28;100332.39;1735683;82;21112;-76
2022/06/21 08:36:14;;;;;;;3.15;1.90;;;;;;;16.10;80.50;100331.95;1748125;81;21088;-75
2022/06/21 08:39:09;;;;;;;6.17;3.05;;;;;;;16.24;79.99;100346.50;1733020;81;21460;-76
2022/06/21 08:42:00;;;;;;;4.60;2.20;;;;;;;16.29;79.18;100339.58;1725746;81;21553;-81
2022/06/21 08:48:00;;;;;;;7.20;1.55;;;;;;;16.53;79.28;100337.22;1700182;83;21091;-77
2022/06/21 08:50:43;;;;;;;2.58;1.40;;;;;;;16.65;78.07;100336.42;1725925;81;20984;-74
2022/06/21 08:53:48;;;;;;;5.92;2.17;;;;;;;16.81;78.30;100342.95;1743309;81;21005;-74
2022/06/21 08:56:45;;;;;;;2.17;1.70;;;;;;;16.89;77.27;100342.48;1732613;81;21014;-75
2022/06/21 08:59:37;;;;;;;3.87;2.02;;;;;;;16.84;76.48;100344.08;1723851;82;21073;-77
2022/06/21 09:02:34;;;;;;;5.12;1.82;;;;;;;16.89;76.33;100357.03;1718723;82;21943;-74
2022/06/21 09:05:31;;;;;;;7.40;1.85;;;;;;;16.96;76.09;100354.38;1749441;81;21020;-74
2022/06/21 09:08:48;;;;;;;3.08;1.65;;;;;;;17.06;75.65;100350.66;1752259;81;21526;-75
2022/06/21 09:11:33;;;;;;;5.72;1.62;;;;;;;17.13;75.52;100340.05;1751913;81;21021;-77
2022/06/21 09:14:23;;;;;;;4.15;1.60;;;;;;;17.15;74.70;100342.10;1708423;82;21028;-77
2022/06/21 09:17:17;;;;;;;2.02;1.60;;;;;;;17.13;74.53;100341.38;1719278;83;21150;-77
2022/06/21 09:20:01;;;;;;;8.85;1.98;;;;;;;17.32;74.83;100339.22;1709690;83;21069;-76
2022/06/21 09:26:46;;;;;;;3.30;1.50;;;;;;;17.70;74.10;100334.94;1754097;81;21025;-77
2022/06/21 09:29:33;;;;;;;3.98;1.70;;;;;;;17.86;73.43;100322.85;1736485;81;21528;-75
2022/06/21 09:32:21;;;;;;;3.92;1.57;;;;;;;17.99;72.83;100327.20;1736970;81;21112;-75
2022/06/21 09:34:56;;;;;;;4.45;1.35;;;;;;;18.17;72.62;100337.00;1740653;81;21066;-75
2022/06/21 09:37:38;;;;;;;4.28;1.32;;;;;;;18.37;72.32;100335.59;1740660;81;20990;-76
2022/06/21 09:40:34;;;;;;;7.47;1.65;;;;;;;18.49;71.59;100329.92;1733036;81;21023;-76
2022/06/21 09:43:16;;;;;;;3.65;1.45;;;;;;;18.41;70.57;100333.59;1740130;81;21541;-76
2022/06/21 09:46:01;;;;;;;3.65;1.40;;;;;;;18.40;70.49;100332.75;1736887;82;21121;-76
2022/06/21 09:49:08;;;;;;;3.87;1.40;;;;;;;18.48;70.51;100326.88;1655031;86;21156;-76
2022/06/21 09:51:50;;;;;;;5.15;1.50;;;;;;;18.61;70.27;100339.65;1654696;86;21094;-75
2022/06/21 09:54:37;;;;;;;5.92;1.60;;;;;;;18.73;69.99;100341.89;1637266;86;21615;-75
2022/06/21 09:57:24;;;;;;;5.50;1.60;;;;;;;18.81;69.48;100350.19;1655005;85;21069;-76
2022/06/21 10:00:23;;;;;;;3.47;1.72;;;;;;;18.93;68.99;100348.48;1654853;86;21936;-77
2022/06/21 10:03:38;;;;;;;3.70;1.57;;;;;;;19.14;68.90;100341.56;1593407;88;21117;-76
2022/06/21 10:06:16;;;;;;;3.00;1.10;;;;;;;19.29;68.75;100338.28;1593984;89;21147;-75
2022/06/21 10:09:13;;;;;;;5.22;1.40;;;;;;;19.35;67.53;100347.60;1593185;89;21190;-76
2022/06/21 10:12:10;;;;;;;4.70;1.40;;;;;;;19.21;66.58;100344.64;1593433;89;21213;-78
2022/06/21 10:14:56;;;;;;;2.85;1.10;;;;;;;19.18;66.29;100350.19;1594215;89;21125;-75
2022/06/21 10:17:28;;;;;;;4.55;1.45;;;;;;;19.08;65.64;100350.00;1593791;89;21465;-76
2022/06/21 10:20:04;;;;;;;3.30;1.40;;;;;;;19.04;65.45;100349.87;1543733;92;21563;-77
2022/06/21 10:22:55;;;;;;;3.80;1.40;;;;;;;19.25;65.80;100340.78;1543744;91;21507;-77
2022/06/21 10:25:40;;;;;;;2.30;1.05;;;;;;;19.54;65.73;100337.77;1556086;90;21615;-76
2022/06/21 10:28:27;;;;;;;2.52;1.00;;;;;;;19.73;64.72;100337.23;1593696;88;21149;-76
2022/06/21 10:31:11;;;;;;;4.58;1.52;;;;;;;19.75;64.01;100333.98;1593900;88;21158;-76
2022/06/21 10:34:17;;;;;;;3.65;1.10;;;;;;;19.67;63.52;100329.72;1593859;88;21153;-75
2022/06/21 10:37:18;;;;;;;3.67;1.20;;;;;;;19.51;62.78;100328.22;1594117;88;21563;-76
2022/06/21 10:39:56;;;;;;;2.42;1.20;;;;;;;19.42;62.96;100335.53;1607419;88;21561;-76
2022/06/21 10:43:03;;;;;;;;;;;;;;;19.36;62.91;100342.16;1631719;86;21176;-76
2022/06/21 10:45:50;;;;;;;2.42;1.42;;;;;;;19.31;62.72;100335.00;1614975;88;20330;-74
2022/06/21 10:49:08;;;;;;;1.92;1.20;;;;;;;19.50;63.38;100330.48;1629396;88;21144;-74
2022/06/21 10:51:53;;;;;;;2.20;1.30;;;;;;;19.76;63.15;100325.02;1624119;86;21082;-74
2022/06/21 10:54:52;;;;;;;3.42;1.15;;;;;;;19.69;61.98;100331.30;1626387;86;21090;-75
2022/06/21 10:57:48;;;;;;;2.27;1.05;;;;;;;19.55;61.65;100332.81;1668488;82;21449;-74
2022/06/21 11:03:28;;;;;;;1.92;1.10;;;;;;;19.39;61.58;100329.96;1741108;82;21519;-74
2022/06/21 11:06:23;;;;;;;3.35;1.30;;;;;;;19.46;61.55;100337.50;1711652;82;21038;-75
2022/06/21 11:08:56;;;;;;;4.37;1.40;;;;;;;19.54;61.57;100333.30;1739751;82;21305;-75
2022/06/21 11:11:31;;;;;;;2.80;1.20;;;;;;;19.64;61.46;100333.92;1718453;82;21941;-81
2022/06/21 11:14:22;;;;;;;2.67;1.30;;;;;;;19.68;60.75;100332.77;1715889;83;21063;-75
2022/06/21 11:17:15;;;;;;;3.80;1.20;;;;;;;19.73;60.57;100331.91;1676593;84;21481;-74
2022/06/21 11:20:15;;;;;;;5.35;1.10;;;;;;;19.83;60.33;100320.45;1690453;83;21040;-75
2022/06/21 11:23:12;;;;;;;2.05;1.15;;;;;;;20.22;60.53;100318.80;1716498;83;21640;-76
2022/06/21 11:26:00;;;;;;;1.80;0.95;;;;;;;21.06;60.79;100314.73;1716397;83;21062;-86
2022/06/21 11:28:44;;;;;;;2.70;0.88;;;;;;;21.46;59.25;100316.77;1714951;83;21062;-78
2022/06/21 11:31:37;;;;;;;2.58;1.12;;;;;;;22.02;58.88;100313.73;1664541;86;21544;-77
2022/06/21 11:34:27;;;;;;;2.30;0.93;;;;;;;22.39;58.20;100307.91;1675908;85;21093;-83
2022/06/21 11:37:03;;;;;;;3.20;1.00;;;;;;;22.86;57.84;100320.66;1639503;86;21099;-79
2022/06/21 11:40:00;;;;;;;2.12;0.80;;;;;;;23.26;56.99;100313.09;1675736;84;21770;-81
2022/06/21 11:42:36;;;;;;;2.70;0.90;;;;;;;23.24;55.78;100316.39;1674353;84;21029;-80
2022/06/21 11:45:23;;;;;;;3.10;0.93;;;;;;;22.95;54.55;100317.19;1676274;85;21059;-76
2022/06/21 11:48:23;;;;;;;3.90;1.20;;;;;;;22.95;54.83;100310.50;1675926;85;21040;-75
2022/06/21 11:51:20;;;;;;;2.33;0.93;;;;;;;23.19;54.06;100302.09;1676031;85;21123;-75
2022/06/21 11:54:12;;;;;;;1.82;0.88;;;;;;;22.94;53.70;100312.80;1707879;83;21951;-77
2022/06/21 11:57:00;;;;;;;2.35;0.80;;;;;;;22.71;53.50;100310.88;1718158;81;21572;-75
2022/06/21 11:59:57;;;;;;;1.85;1.00;;;;;;;22.60;53.39;100312.33;1733536;81;20949;-75
2022/06/21 12:02:51;;;;;;;2.75;0.82;;;;;;;22.59;52.88;100311.98;1738439;82;21087;-77
2022/06/21 12:05:54;;;;;;;6.17;1.20;;;;;;;22.66;53.06;100307.77;1732632;81;21068;-79
2022/06/21 12:08:48;;;;;;;3.47;0.88;;;;;;;22.93;52.93;100315.14;1738953;81;21136;-77
2022/06/21 12:11:33;;;;;;;5.35;1.17;;;;;;;22.80;52.50;100319.89;1735716;81;21681;-75
2022/06/21 12:14:28;;;;;;;3.05;1.00;;;;;;;22.55;51.50;100325.23;1738121;81;21029;-78
2022/06/21 12:17:38;;;;;;;2.80;0.90;;;;;;;22.52;51.79;100313.49;1736878;81;21571;-78
2022/06/21 12:20:11;;;;;;;4.67;0.90;;;;;;;22.51;51.84;100309.98;1722982;83;21482;-77
2022/06/21 12:22:49;;;;;;;1.35;0.80;;;;;;;22.75;52.11;100308.77;1724683;80;21137;-77
2022/06/21 12:25:20;;;;;;;1.90;0.90;;;;;;;22.74;51.61;100317.27;1731758;81;21053;-80
2022/06/21 12:27:47;;;;;;;1.77;1.05;;;;;;;22.61;51.25;100307.33;1733761;81;21079;-77
2022/06/21 12:30:25;;;;;;;2.90;0.95;;;;;;;22.44;51.04;100311.49;1720516;82;21595;-77
2022/06/21 12:32:57;;;;;;;3.47;1.07;;;;;;;22.61;51.18;100305.48;1720269;83;21067;-80
2022/06/21 12:35:45;;;;;;;4.33;0.98;;;;;;;22.59;50.95;100307.48;1751988;81;21762;-77
2022/06/21 12:38:20;;;;;;;2.22;1.00;;;;;;;22.44;50.58;100299.47;1733418;81;21060;-78
2022/06/21 12:41:16;;;;;;;1.47;0.80;;;;;;;22.60;51.22;100308.31;1735516;81;21014;-78
2022/06/21 12:44:25;;;;;;;2.35;0.80;;;;;;;23.18;51.32;100295.06;1733361;81;21105;-78
2022/06/21 12:47:20;;;;;;;2.27;0.90;;;;;;;23.61;50.70;100301.77;1732969;81;21694;-84
2022/06/21 12:50:24;;;;;;;3.00;0.95;;;;;;;23.58;49.48;100298.05;1737506;81;21183;-76
2022/06/21 12:53:05;;;;;;;1.80;0.80;;;;;;;23.87;49.15;100299.88;1730183;81;21030;-77